createdAt,value
2023-06-30T00:04:07.465Z,55.30
2023-06-30T00:09:10.357Z,55.13
2023-06-30T00:14:13.132Z,55.68
2023-06-30T00:19:17.644Z,55.67
2023-06-30T00:24:20.524Z,55.40
2023-06-30T00:29:24.073Z,55.81
2023-06-30T00:34:29.072Z,55.49
2023-06-30T00:39:31.871Z,55.69
2023-06-30T00:44:36.973Z,55.66
2023-06-30T00:49:41.726Z,56.17
2023-06-30T00:54:44.617Z,55.98
2023-06-30T00:59:47.479Z,56.18
2023-06-30T01:04:59.776Z,56.39
2023-06-30T01:10:09.005Z,56.08
2023-06-30T01:15:13.572Z,56.56
2023-06-30T01:20:20.223Z,56.30
2023-06-30T01:25:27.611Z,56.72
2023-06-30T01:30:31.264Z,56.60
2023-06-30T01:35:36.049Z,56.93
2023-06-30T01:40:39.111Z,57.00
2023-06-30T01:45:42.809Z,56.74
2023-06-30T01:50:47.732Z,57.19
2023-06-30T01:55:51.483Z,57.10
2023-06-30T02:00:54.558Z,57.14
2023-06-30T02:05:58.810Z,57.52
2023-06-30T02:11:01.668Z,57.46
2023-06-30T02:16:04.592Z,57.22
2023-06-30T02:21:08.859Z,57.25
2023-06-30T02:26:11.740Z,57.43
2023-06-30T02:31:14.745Z,57.41
2023-06-30T02:36:18.949Z,57.54
2023-06-30T02:41:21.791Z,57.60
2023-06-30T02:46:24.657Z,57.41
2023-06-30T02:51:29.122Z,57.58
2023-06-30T02:56:33.014Z,57.87
2023-06-30T03:01:36.857Z,57.56
2023-06-30T03:06:41.525Z,57.99
2023-06-30T03:11:45.994Z,58.17
2023-06-30T03:16:49.442Z,57.85
2023-06-30T03:21:54.148Z,58.26
2023-06-30T03:26:56.936Z,58.40
2023-06-30T03:32:02.038Z,58.41
2023-06-30T03:37:06.822Z,60.50
2023-06-30T03:42:09.876Z,61.75
2023-06-30T03:47:14.264Z,60.82
2023-06-30T03:52:18.559Z,61.02
2023-06-30T03:57:21.386Z,60.87
2023-06-30T04:02:24.665Z,61.39
2023-06-30T04:07:29.038Z,61.00
2023-06-30T04:12:32.186Z,61.94
2023-06-30T04:17:35.103Z,62.12
2023-06-30T04:22:39.653Z,61.95
2023-06-30T04:27:42.460Z,61.89
2023-06-30T04:32:45.298Z,61.48
2023-06-30T04:37:49.515Z,62.00
2023-06-30T04:42:52.287Z,63.43
2023-06-30T04:47:55.180Z,63.66
2023-06-30T04:52:59.491Z,63.76
2023-06-30T04:58:02.422Z,64.94
2023-06-30T05:03:05.676Z,65.78
2023-06-30T05:08:09.980Z,67.12
2023-06-30T05:13:12.799Z,67.24
2023-06-30T05:18:16.462Z,67.11
2023-06-30T05:23:21.080Z,66.55
2023-06-30T05:28:23.961Z,66.11
2023-06-30T05:33:27.014Z,65.80
2023-06-30T05:38:31.649Z,66.48
2023-06-30T05:43:34.419Z,67.01
2023-06-30T05:48:37.268Z,67.72
2023-06-30T05:53:41.435Z,68.81
2023-06-30T05:58:44.260Z,68.51
2023-06-30T06:03:47.286Z,67.96
2023-06-30T06:08:51.631Z,68.16
2023-06-30T06:13:54.995Z,67.31
2023-06-30T06:18:57.961Z,66.77
2023-06-30T06:24:02.403Z,66.51
2023-06-30T06:29:05.551Z,67.21
2023-06-30T06:34:08.467Z,67.03
2023-06-30T06:39:12.972Z,66.70
2023-06-30T06:44:15.900Z,66.58
2023-06-30T06:49:18.822Z,64.73
2023-06-30T06:54:26.672Z,64.60
2023-06-30T06:59:29.837Z,66.07
2023-06-30T07:04:32.625Z,66.93
2023-06-30T07:09:36.817Z,65.99
2023-06-30T07:14:39.788Z,64.99
2023-06-30T07:19:43.789Z,65.63
2023-06-30T07:24:48.272Z,65.04
2023-06-30T07:29:52.196Z,64.59
2023-06-30T07:34:55.012Z,64.66
2023-06-30T07:40:05.711Z,64.93
2023-06-30T07:45:19.266Z,65.11
2023-06-30T07:50:22.187Z,65.73
2023-06-30T07:55:26.836Z,65.60
2023-06-30T08:00:30.368Z,65.27
2023-06-30T08:05:34.144Z,64.67
2023-06-30T08:10:39.995Z,64.95
2023-06-30T08:15:45.861Z,64.88
2023-06-30T08:20:51.378Z,65.13
2023-06-30T08:25:56.460Z,64.96
2023-06-30T08:30:59.493Z,65.36
2023-06-30T08:36:02.825Z,65.76
2023-06-30T08:41:07.513Z,65.44
2023-06-30T08:46:12.694Z,64.96
2023-06-30T08:51:17.471Z,65.10
2023-06-30T08:56:22.925Z,66.71
2023-06-30T09:01:27.266Z,68.25
2023-06-30T09:06:30.829Z,67.36
2023-06-30T09:11:36.010Z,67.23
2023-06-30T09:16:38.920Z,66.84
2023-06-30T09:21:42.225Z,65.77
2023-06-30T09:26:46.678Z,64.99
2023-06-30T09:31:52.374Z,64.61
2023-06-30T09:36:56.774Z,64.33
2023-06-30T09:42:00.988Z,64.06
2023-06-30T09:47:04.617Z,63.77
2023-06-30T09:52:10.197Z,63.48
2023-06-30T09:57:17.657Z,63.37
2023-06-30T10:02:20.718Z,63.14
2023-06-30T10:07:23.722Z,62.96
2023-06-30T10:12:29.499Z,63.15
2023-06-30T10:17:33.762Z,63.05
2023-06-30T10:22:38.209Z,63.50
2023-06-30T10:27:43.205Z,63.60
2023-06-30T10:32:46.464Z,63.65
2023-06-30T10:37:49.945Z,63.58
2023-06-30T10:42:57.513Z,63.99
2023-06-30T10:48:10.236Z,64.66
2023-06-30T10:53:32.241Z,64.58
2023-06-30T10:58:44.982Z,64.25
2023-06-30T11:04:13.575Z,64.22
2023-06-30T11:09:16.655Z,64.43
2023-06-30T11:14:34.137Z,64.26
2023-06-30T11:19:38.522Z,64.08
2023-06-30T11:24:41.925Z,63.68
2023-06-30T11:29:47.354Z,63.62
2023-06-30T11:34:50.901Z,63.65
2023-06-30T11:39:54.533Z,63.78
2023-06-30T11:44:58.805Z,63.62
2023-06-30T11:50:07.092Z,63.59
2023-06-30T11:55:11.399Z,63.44
2023-06-30T12:00:18.785Z,63.45
2023-06-30T12:05:33.991Z,63.69
2023-06-30T12:10:39.410Z,63.26
2023-06-30T12:15:44.712Z,63.30
2023-06-30T12:20:47.819Z,63.13
2023-06-30T12:25:50.857Z,63.36
2023-06-30T12:30:56.111Z,63.08
2023-06-30T12:35:58.957Z,63.41
2023-06-30T12:41:01.963Z,63.08
2023-06-30T12:46:06.306Z,62.88
2023-06-30T12:51:10.075Z,62.93
2023-06-30T12:56:13.260Z,63.11
2023-06-30T13:01:17.867Z,62.95
2023-06-30T13:06:20.922Z,62.77
2023-06-30T13:11:24.335Z,62.55
2023-06-30T13:16:28.687Z,62.33
2023-06-30T13:21:31.898Z,63.15
2023-06-30T13:26:36.333Z,63.73
2023-06-30T13:31:44.137Z,64.01
2023-06-30T13:36:48.674Z,64.82
2023-06-30T13:41:51.514Z,65.92
2023-06-30T13:46:56.344Z,67.76
2023-06-30T13:51:59.831Z,68.19
2023-06-30T13:57:02.952Z,69.19
2023-06-30T14:02:07.838Z,68.70
2023-06-30T14:07:10.804Z,68.47
2023-06-30T14:12:13.709Z,67.92
2023-06-30T14:17:18.226Z,68.67
2023-06-30T14:22:21.165Z,68.77
2023-06-30T14:27:24.056Z,69.20
2023-06-30T14:32:29.057Z,69.52
2023-06-30T14:37:31.938Z,68.04
2023-06-30T14:42:34.782Z,67.65
2023-06-30T14:47:39.005Z,67.02
2023-06-30T14:52:41.781Z,67.66
2023-06-30T14:57:46.556Z,67.51
2023-06-30T15:02:52.019Z,67.08
2023-06-30T15:07:56.622Z,65.96
2023-06-30T15:12:59.488Z,66.15
2023-06-30T15:18:03.886Z,65.96
2023-06-30T15:23:06.816Z,65.95
2023-06-30T15:28:09.978Z,65.43
2023-06-30T15:33:15.395Z,65.89
2023-06-30T15:38:18.369Z,66.21
2023-06-30T15:43:21.286Z,66.21
2023-06-30T15:48:25.618Z,67.12
2023-06-30T15:53:28.540Z,67.00
2023-06-30T15:58:31.545Z,67.23
2023-06-30T16:03:39.074Z,66.68
2023-06-30T16:08:42.106Z,67.61
2023-06-30T16:13:45.111Z,67.73
2023-06-30T16:18:50.333Z,67.48
2023-06-30T16:23:54.011Z,67.50
2023-06-30T16:28:57.160Z,69.39
2023-06-30T16:34:11.949Z,68.73
2023-06-30T16:39:20.979Z,68.96
2023-06-30T16:44:24.010Z,68.82
2023-06-30T16:49:31.387Z,68.24
2023-06-30T16:54:34.229Z,67.30
2023-06-30T16:59:37.423Z,65.97
2023-06-30T17:04:41.839Z,65.16
2023-06-30T17:09:44.767Z,64.87
2023-06-30T17:14:47.648Z,64.55
2023-06-30T17:19:52.113Z,63.67
2023-06-30T17:24:58.482Z,63.51
2023-06-30T17:30:08.709Z,63.23
2023-06-30T17:35:13.015Z,63.66
2023-06-30T17:40:16.038Z,63.25
2023-06-30T17:45:18.871Z,62.53
2023-06-30T17:50:26.142Z,63.24
2023-06-30T17:55:28.956Z,62.44
2023-06-30T18:00:31.864Z,62.58
2023-06-30T18:05:36.388Z,62.19
2023-06-30T18:10:41.714Z,61.69
2023-06-30T18:15:45.257Z,61.21
2023-06-30T18:20:49.671Z,61.30
2023-06-30T18:25:55.547Z,60.92
2023-06-30T18:30:58.514Z,61.86
2023-06-30T18:36:02.887Z,61.62
2023-06-30T18:41:05.975Z,61.79
2023-06-30T18:46:09.078Z,60.87
2023-06-30T18:51:13.801Z,60.96
2023-06-30T18:56:16.740Z,61.01
2023-06-30T19:01:19.886Z,61.48
2023-06-30T19:06:25.515Z,61.99
2023-06-30T19:11:28.552Z,61.33
2023-06-30T19:16:31.657Z,61.15
2023-06-30T19:21:36.033Z,61.04
2023-06-30T19:26:38.906Z,61.41
2023-06-30T19:31:42.053Z,60.65
2023-06-30T19:36:46.680Z,60.53
2023-06-30T19:41:49.732Z,59.88
2023-06-30T19:46:52.681Z,60.60
2023-06-30T19:51:56.979Z,60.60
2023-06-30T19:56:59.800Z,60.16
2023-06-30T20:02:02.789Z,59.85
2023-06-30T20:07:09.418Z,59.50
2023-06-30T20:12:12.401Z,59.79
2023-06-30T20:17:15.333Z,59.88
2023-06-30T20:22:19.481Z,59.78
2023-06-30T20:27:22.456Z,59.65
2023-06-30T20:32:25.622Z,59.35
2023-06-30T20:37:29.815Z,59.55
2023-06-30T20:42:32.767Z,59.17
2023-06-30T20:47:36.018Z,59.75
2023-06-30T20:52:40.320Z,59.32
2023-06-30T20:57:43.220Z,59.16
2023-06-30T21:02:46.291Z,60.60
2023-06-30T21:07:50.906Z,60.52
2023-06-30T21:12:56.155Z,60.90
2023-06-30T21:17:59.141Z,59.92
2023-06-30T21:23:03.320Z,60.86
2023-06-30T21:28:06.349Z,61.65
2023-06-30T21:33:09.397Z,61.79
2023-06-30T21:38:13.694Z,60.87
2023-06-30T21:43:16.536Z,60.88
2023-06-30T21:48:19.377Z,59.53
2023-06-30T21:53:23.484Z,60.53
2023-06-30T21:58:27.931Z,59.87
2023-06-30T22:03:32.325Z,59.61
2023-06-30T22:08:36.570Z,59.42
2023-06-30T22:13:39.453Z,59.16
2023-06-30T22:18:42.579Z,58.63
2023-06-30T22:23:46.845Z,58.69
2023-06-30T22:28:49.892Z,58.10
2023-06-30T22:33:52.712Z,58.24
2023-06-30T22:38:56.901Z,58.48
2023-06-30T22:44:00.637Z,59.47
2023-06-30T22:49:04.674Z,59.78
2023-06-30T22:54:09.031Z,61.06
2023-06-30T22:59:12.017Z,61.53
2023-06-30T23:04:14.918Z,60.51
2023-06-30T23:09:19.089Z,60.51
2023-06-30T23:14:22.514Z,59.63
2023-06-30T23:19:27.427Z,59.24
2023-06-30T23:24:33.897Z,58.70
2023-06-30T23:29:38.617Z,58.62
2023-06-30T23:34:41.704Z,58.19
2023-06-30T23:39:48.344Z,58.72
2023-06-30T23:44:51.495Z,58.44
2023-06-30T23:49:54.377Z,58.12
2023-06-30T23:54:58.559Z,57.79
